sensor_id;sensor_type;location;lat;lon;timestamp;pressure;altitude;pressure_sealevel;temperature;humidity
8061;BME280;4073;42.626;25.386;2023-12-20T00:00:13;97518.13;;;2.75;100.00
8061;BME280;4073;42.626;25.386;2023-12-20T00:02:39;97518.94;;;2.76;100.00
8061;BME280;4073;42.626;25.386;2023-12-20T00:05:05;97520.16;;;2.73;100.00
8061;BME280;4073;42.626;25.386;2023-12-20T00:07:30;97530.97;;;2.65;100.00
8061;BME280;4073;42.626;25.386;2023-12-20T00:09:56;97524.75;;;2.53;100.00
8061;BME280;4073;42.626;25.386;2023-12-20T00:12:21;97523.13;;;2.52;100.00
8061;BME280;4073;42.626;25.386;2023-12-20T00:14:47;97526.00;;;2.50;100.00
8061;BME280;4073;42.626;25.386;2023-12-20T00:17:12;97524.75;;;2.53;100.00
8061;BME280;4073;42.626;25.386;2023-12-20T00:19:38;97525.16;;;2.56;100.00
8061;BME280;4073;42.626;25.386;2023-12-20T00:22:03;97522.72;;;2.55;100.00
8061;BME280;4073;42.626;25.386;2023-12-20T00:24:29;97524.75;;;2.53;100.00
8061;BME280;4073;42.626;25.386;2023-12-20T00:26:54;97520.94;;;2.49;100.00
8061;BME280;4073;42.626;25.386;2023-12-20T00:29:20;97524.38;;;2.49;100.00
8061;BME280;4073;42.626;25.386;2023-12-20T00:31:45;97526.25;;;2.42;100.00
8061;BME280;4073;42.626;25.386;2023-12-20T00:34:11;97528.78;;;2.24;100.00
8061;BME280;4073;42.626;25.386;2023-12-20T00:36:37;97534.28;;;2.23;100.00
8061;BME280;4073;42.626;25.386;2023-12-20T00:39:02;97524.94;;;2.20;100.00
8061;BME280;4073;42.626;25.386;2023-12-20T00:41:28;97481.84;;;1.95;100.00
8061;BME280;4073;42.626;25.386;2023-12-20T00:43:54;97513.38;;;2.21;100.00
8061;BME280;4073;42.626;25.386;2023-12-20T00:46:19;97508.69;;;2.23;100.00
8061;BME280;4073;42.626;25.386;2023-12-20T00:48:45;97503.59;;;2.28;100.00
8061;BME280;4073;42.626;25.386;2023-12-20T00:51:11;97508.28;;;2.26;100.00
8061;BME280;4073;42.626;25.386;2023-12-20T00:53:36;97500.34;;;2.33;100.00
8061;BME280;4073;42.626;25.386;2023-12-20T00:56:02;97509.22;;;2.38;100.00
8061;BME280;4073;42.626;25.386;2023-12-20T00:58:28;97501.31;;;2.38;100.00
8061;BME280;4073;42.626;25.386;2023-12-20T01:00:53;97495.63;;;2.41;100.00
8061;BME280;4073;42.626;25.386;2023-12-20T01:03:19;97500.44;;;2.44;100.00
8061;BME280;4073;42.626;25.386;2023-12-20T01:05:44;97488.34;;;2.37;100.00
8061;BME280;4073;42.626;25.386;2023-12-20T01:08:10;97486.94;;;2.34;100.00
8061;BME280;4073;42.626;25.386;2023-12-20T01:10:35;97479.44;;;2.31;100.00
8061;BME280;4073;42.626;25.386;2023-12-20T01:13:01;97474.94;;;2.32;100.00
8061;BME280;4073;42.626;25.386;2023-12-20T01:15:26;97472.94;;;2.27;100.00
8061;BME280;4073;42.626;25.386;2023-12-20T01:17:52;97467.31;;;2.24;100.00
8061;BME280;4073;42.626;25.386;2023-12-20T01:20:17;97461.84;;;2.19;100.00
8061;BME280;4073;42.626;25.386;2023-12-20T01:22:45;97457.00;;;2.16;100.00
8061;BME280;4073;42.626;25.386;2023-12-20T01:25:11;97445.09;;;2.07;100.00
8061;BME280;4073;42.626;25.386;2023-12-20T01:27:37;97460.50;;;2.10;100.00
8061;BME280;4073;42.626;25.386;2023-12-20T01:30:03;97452.72;;;2.15;100.00
8061;BME280;4073;42.626;25.386;2023-12-20T01:32:29;97453.91;;;2.25;100.00
8061;BME280;4073;42.626;25.386;2023-12-20T01:34:55;97444.72;;;2.34;100.00
8061;BME280;4073;42.626;25.386;2023-12-20T01:37:20;97445.28;;;2.36;100.00
8061;BME280;4073;42.626;25.386;2023-12-20T01:39:46;97436.25;;;2.26;100.00
8061;BME280;4073;42.626;25.386;2023-12-20T01:42:11;97433.81;;;2.24;100.00
8061;BME280;4073;42.626;25.386;2023-12-20T01:44:37;97422.66;;;2.22;100.00
8061;BME280;4073;42.626;25.386;2023-12-20T01:47:03;97434.03;;;2.23;100.00
8061;BME280;4073;42.626;25.386;2023-12-20T01:49:28;97426.91;;;2.23;100.00
8061;BME280;4073;42.626;25.386;2023-12-20T01:51:54;97418.56;;;2.26;100.00
8061;BME280;4073;42.626;25.386;2023-12-20T01:54:20;97411.28;;;2.28;100.00
8061;BME280;4073;42.626;25.386;2023-12-20T01:56:46;97410.25;;;2.29;100.00
8061;BME280;4073;42.626;25.386;2023-12-20T01:59:12;97407.38;;;2.31;100.00
8061;BME280;4073;42.626;25.386;2023-12-20T02:01:38;97400.31;;;2.25;100.00
8061;BME280;4073;42.626;25.386;2023-12-20T02:04:03;97403.56;;;2.27;100.00
8061;BME280;4073;42.626;25.386;2023-12-20T02:06:30;97399.63;;;2.11;100.00
8061;BME280;4073;42.626;25.386;2023-12-20T02:08:59;97392.47;;;1.87;100.00
8061;BME280;4073;42.626;25.386;2023-12-20T02:11:26;97391.38;;;2.01;100.00
8061;BME280;4073;42.626;25.386;2023-12-20T02:13:53;97384.84;;;2.04;100.00
8061;BME280;4073;42.626;25.386;2023-12-20T02:16:19;97377.53;;;2.06;100.00
8061;BME280;4073;42.626;25.386;2023-12-20T02:18:45;97376.50;;;2.07;100.00
8061;BME280;4073;42.626;25.386;2023-12-20T02:21:10;97376.94;;;2.04;100.00
8061;BME280;4073;42.626;25.386;2023-12-20T02:23:36;97373.31;;;1.98;100.00
8061;BME280;4073;42.626;25.386;2023-12-20T02:26:02;97363.19;;;1.95;100.00
8061;BME280;4073;42.626;25.386;2023-12-20T02:28:28;97358.78;;;1.89;100.00
8061;BME280;4073;42.626;25.386;2023-12-20T02:30:54;97360.63;;;1.89;100.00
8061;BME280;4073;42.626;25.386;2023-12-20T02:33:20;97351.88;;;1.88;100.00
8061;BME280;4073;42.626;25.386;2023-12-20T02:35:45;97354.31;;;1.90;100.00
8061;BME280;4073;42.626;25.386;2023-12-20T02:38:11;97356.97;;;1.83;100.00
8061;BME280;4073;42.626;25.386;2023-12-20T02:40:37;97359.28;;;1.73;100.00
8061;BME280;4073;42.626;25.386;2023-12-20T02:43:02;97353.22;;;1.66;100.00
8061;BME280;4073;42.626;25.386;2023-12-20T02:45:28;97355.84;;;1.66;100.00
8061;BME280;4073;42.626;25.386;2023-12-20T02:47:53;97355.44;;;1.69;100.00
8061;BME280;4073;42.626;25.386;2023-12-20T02:50:19;97350.59;;;1.66;100.00
8061;BME280;4073;42.626;25.386;2023-12-20T02:52:45;97336.00;;;1.64;100.00
8061;BME280;4073;42.626;25.386;2023-12-20T02:55:10;97338.06;;;1.62;100.00
8061;BME280;4073;42.626;25.386;2023-12-20T02:57:36;97332.59;;;1.63;100.00
8061;BME280;4073;42.626;25.386;2023-12-20T03:00:09;97338.84;;;1.69;100.00
8061;BME280;4073;42.626;25.386;2023-12-20T03:02:35;97328.88;;;1.71;100.00
8061;BME280;4073;42.626;25.386;2023-12-20T03:05:01;97307.28;;;1.56;100.00
8061;BME280;4073;42.626;25.386;2023-12-20T03:07:26;97326.03;;;1.72;100.00
8061;BME280;4073;42.626;25.386;2023-12-20T03:09:52;97321.59;;;1.66;100.00
8061;BME280;4073;42.626;25.386;2023-12-20T03:12:17;97326.84;;;1.73;100.00
8061;BME280;4073;42.626;25.386;2023-12-20T03:14:43;97323.19;;;1.74;100.00
8061;BME280;4073;42.626;25.386;2023-12-20T03:17:10;97328.84;;;1.77;100.00
8061;BME280;4073;42.626;25.386;2023-12-20T03:19:35;97322.41;;;1.73;100.00
8061;BME280;4073;42.626;25.386;2023-12-20T03:22:01;97319.38;;;1.70;100.00
8061;BME280;4073;42.626;25.386;2023-12-20T03:24:27;97316.78;;;1.63;100.00
8061;BME280;4073;42.626;25.386;2023-12-20T03:26:52;97321.69;;;1.53;100.00
8061;BME280;4073;42.626;25.386;2023-12-20T03:29:18;97314.03;;;1.45;100.00
8061;BME280;4073;42.626;25.386;2023-12-20T03:31:43;97317.50;;;1.39;100.00
8061;BME280;4073;42.626;25.386;2023-12-20T03:34:09;97303.13;;;1.35;100.00
8061;BME280;4073;42.626;25.386;2023-12-20T03:36:35;97303.75;;;1.37;100.00
8061;BME280;4073;42.626;25.386;2023-12-20T03:39:01;97295.59;;;1.45;100.00
8061;BME280;4073;42.626;25.386;2023-12-20T03:41:26;97292.75;;;1.47;100.00
8061;BME280;4073;42.626;25.386;2023-12-20T03:43:52;97291.75;;;1.48;100.00
8061;BME280;4073;42.626;25.386;2023-12-20T03:46:17;97294.59;;;1.40;100.00
8061;BME280;4073;42.626;25.386;2023-12-20T03:48:43;97291.75;;;1.41;100.00
8061;BME280;4073;42.626;25.386;2023-12-20T03:51:08;97296.22;;;1.41;100.00
8061;BME280;4073;42.626;25.386;2023-12-20T03:53:34;97290.78;;;1.36;100.00
8061;BME280;4073;42.626;25.386;2023-12-20T03:55:59;97291.59;;;1.36;100.00
8061;BME280;4073;42.626;25.386;2023-12-20T03:58:25;97287.31;;;1.35;100.00
8061;BME280;4073;42.626;25.386;2023-12-20T04:00:50;97285.50;;;1.36;100.00
8061;BME280;4073;42.626;25.386;2023-12-20T04:03:16;97275.59;;;1.31;100.00
8061;BME280;4073;42.626;25.386;2023-12-20T04:05:41;97272.97;;;1.31;100.00
8061;BME280;4073;42.626;25.386;2023-12-20T04:08:07;97278.22;;;1.38;100.00
8061;BME280;4073;42.626;25.386;2023-12-20T04:10:32;97271.09;;;1.45;100.00
8061;BME280;4073;42.626;25.386;2023-12-20T04:12:58;97269.44;;;1.50;100.00
8061;BME280;4073;42.626;25.386;2023-12-20T04:15:23;97275.28;;;1.52;100.00
8061;BME280;4073;42.626;25.386;2023-12-20T04:17:49;97278.78;;;1.46;100.00
8061;BME280;4073;42.626;25.386;2023-12-20T04:20:14;97278.44;;;1.30;100.00
8061;BME280;4073;42.626;25.386;2023-12-20T04:22:39;97276.03;;;1.28;100.00
8061;BME280;4073;42.626;25.386;2023-12-20T04:25:05;97275.03;;;1.29;100.00
8061;BME280;4073;42.626;25.386;2023-12-20T04:27:31;97266.50;;;1.27;100.00
8061;BME280;4073;42.626;25.386;2023-12-20T04:29:56;97263.81;;;1.34;100.00
8061;BME280;4073;42.626;25.386;2023-12-20T04:32:22;97257.56;;;1.35;100.00
8061;BME280;4073;42.626;25.386;2023-12-20T04:34:47;97252.09;;;1.36;100.00
8061;BME280;4073;42.626;25.386;2023-12-20T04:37:13;97259.94;;;1.43;100.00
8061;BME280;4073;42.626;25.386;2023-12-20T04:39:38;97260.34;;;1.46;100.00
8061;BME280;4073;42.626;25.386;2023-12-20T04:42:05;97273.06;;;1.49;100.00
8061;BME280;4073;42.626;25.386;2023-12-20T04:44:30;97275.94;;;1.48;100.00
8061;BME280;4073;42.626;25.386;2023-12-20T04:46:56;97287.66;;;1.52;100.00
8061;BME280;4073;42.626;25.386;2023-12-20T04:49:21;97284.81;;;1.53;100.00
8061;BME280;4073;42.626;25.386;2023-12-20T04:51:47;97284.41;;;1.50;100.00
8061;BME280;4073;42.626;25.386;2023-12-20T04:54:12;97282.59;;;1.50;100.00
8061;BME280;4073;42.626;25.386;2023-12-20T04:56:38;97283.38;;;1.51;100.00
8061;BME280;4073;42.626;25.386;2023-12-20T04:59:04;97274.06;;;1.55;100.00
8061;BME280;4073;42.626;25.386;2023-12-20T05:01:29;97277.28;;;1.57;100.00
8061;BME280;4073;42.626;25.386;2023-12-20T05:03:55;97273.63;;;1.58;100.00
8061;BME280;4073;42.626;25.386;2023-12-20T05:06:20;97272.41;;;1.60;100.00
8061;BME280;4073;42.626;25.386;2023-12-20T05:08:46;97260.44;;;1.58;100.00
8061;BME280;4073;42.626;25.386;2023-12-20T05:11:11;97256.81;;;1.52;100.00
8061;BME280;4073;42.626;25.386;2023-12-20T05:13:39;97262.75;;;1.48;100.00
8061;BME280;4073;42.626;25.386;2023-12-20T05:16:05;97243.72;;;1.39;100.00
8061;BME280;4073;42.626;25.386;2023-12-20T05:18:30;97250.03;;;1.38;100.00
8061;BME280;4073;42.626;25.386;2023-12-20T05:20:56;97254.06;;;1.41;100.00
8061;BME280;4073;42.626;25.386;2023-12-20T05:23:22;97249.81;;;1.40;100.00
8061;BME280;4073;42.626;25.386;2023-12-20T05:25:47;97254.50;;;1.38;100.00
8061;BME280;4073;42.626;25.386;2023-12-20T05:28:12;97258.63;;;1.27;100.00
8061;BME280;4073;42.626;25.386;2023-12-20T05:30:38;97255.22;;;1.14;100.00
8061;BME280;4073;42.626;25.386;2023-12-20T05:33:04;97241.75;;;0.97;100.00
8061;BME280;4073;42.626;25.386;2023-12-20T05:35:29;97250.25;;;0.99;100.00
8061;BME280;4073;42.626;25.386;2023-12-20T05:37:55;97243.19;;;0.93;100.00
8061;BME280;4073;42.626;25.386;2023-12-20T05:40:20;97245.81;;;0.93;100.00
8061;BME280;4073;42.626;25.386;2023-12-20T05:42:46;97233.03;;;0.97;100.00
8061;BME280;4073;42.626;25.386;2023-12-20T05:45:11;97220.06;;;1.02;100.00
8061;BME280;4073;42.626;25.386;2023-12-20T05:47:37;97224.69;;;1.06;100.00
8061;BME280;4073;42.626;25.386;2023-12-20T05:50:02;97225.50;;;1.07;100.00
8061;BME280;4073;42.626;25.386;2023-12-20T05:52:29;97227.91;;;1.08;100.00
8061;BME280;4073;42.626;25.386;2023-12-20T05:54:54;97222.69;;;1.02;100.00
8061;BME280;4073;42.626;25.386;2023-12-20T05:57:23;97211.56;;;1.00;100.00
8061;BME280;4073;42.626;25.386;2023-12-20T05:59:48;97224.72;;;1.00;100.00
8061;BME280;4073;42.626;25.386;2023-12-20T06:02:14;97216.44;;;0.96;100.00
8061;BME280;4073;42.626;25.386;2023-12-20T06:04:42;97218.72;;;0.86;100.00
8061;BME280;4073;42.626;25.386;2023-12-20T06:07:08;97225.19;;;0.90;100.00
8061;BME280;4073;42.626;25.386;2023-12-20T06:09:34;97219.50;;;0.93;100.00
8061;BME280;4073;42.626;25.386;2023-12-20T06:11:59;97214.19;;;1.00;100.00
8061;BME280;4073;42.626;25.386;2023-12-20T06:14:25;97214.78;;;1.02;100.00
8061;BME280;4073;42.626;25.386;2023-12-20T06:16:51;97205.09;;;1.02;100.00
8061;BME280;4073;42.626;25.386;2023-12-20T06:19:16;97216.13;;;1.17;100.00
8061;BME280;4073;42.626;25.386;2023-12-20T06:21:42;97211.56;;;1.31;100.00
8061;BME280;4073;42.626;25.386;2023-12-20T06:24:07;97213.28;;;2.41;100.00
8061;BME280;4073;42.626;25.386;2023-12-20T06:26:33;97204.47;;;4.30;100.00
8061;BME280;4073;42.626;25.386;2023-12-20T06:28:58;97210.25;;;6.23;100.00
8061;BME280;4073;42.626;25.386;2023-12-20T06:31:24;97215.06;;;8.09;90.94
8061;BME280;4073;42.626;25.386;2023-12-20T06:33:49;97224.13;;;9.72;74.08
8061;BME280;4073;42.626;25.386;2023-12-20T06:36:22;97238.31;;;10.63;65.77
8061;BME280;4073;42.626;25.386;2023-12-20T06:38:48;97246.03;;;10.85;61.95
8061;BME280;4073;42.626;25.386;2023-12-20T06:41:13;97236.78;;;11.36;58.67
8061;BME280;4073;42.626;25.386;2023-12-20T06:43:39;97229.13;;;12.11;54.85
8061;BME280;4073;42.626;25.386;2023-12-20T06:46:06;97224.75;;;13.06;51.24
8061;BME280;4073;42.626;25.386;2023-12-20T06:48:31;97218.66;;;13.24;48.94
8061;BME280;4073;42.626;25.386;2023-12-20T06:50:59;97219.09;;;13.73;48.19
8061;BME280;4073;42.626;25.386;2023-12-20T06:53:24;97213.66;;;15.20;44.65
8061;BME280;4073;42.626;25.386;2023-12-20T06:55:50;97209.25;;;15.24;43.15
8061;BME280;4073;42.626;25.386;2023-12-20T06:58:15;97213.06;;;15.50;42.71
8061;BME280;4073;42.626;25.386;2023-12-20T07:00:41;97196.81;;;16.13;40.58
8061;BME280;4073;42.626;25.386;2023-12-20T07:03:07;97208.38;;;16.49;40.04
8061;BME280;4073;42.626;25.386;2023-12-20T07:05:33;97209.06;;;16.63;39.78
8061;BME280;4073;42.626;25.386;2023-12-20T07:07:59;97202.66;;;16.28;40.91
8061;BME280;4073;42.626;25.386;2023-12-20T07:10:24;97202.72;;;16.37;40.72
8061;BME280;4073;42.626;25.386;2023-12-20T07:12:50;97203.47;;;17.76;38.08
8061;BME280;4073;42.626;25.386;2023-12-20T07:15:16;97196.97;;;17.77;38.08
8061;BME280;4073;42.626;25.386;2023-12-20T07:17:42;97199.50;;;17.65;38.43
8061;BME280;4073;42.626;25.386;2023-12-20T07:20:09;97194.94;;;17.35;39.05
8061;BME280;4073;42.626;25.386;2023-12-20T07:22:36;97186.31;;;18.41;36.97
8061;BME280;4073;42.626;25.386;2023-12-20T07:25:02;97175.66;;;18.36;36.85
8061;BME280;4073;42.626;25.386;2023-12-20T07:27:29;97193.63;;;18.57;36.53
8061;BME280;4073;42.626;25.386;2023-12-20T07:29:54;97189.28;;;18.65;36.26
8061;BME280;4073;42.626;25.386;2023-12-20T07:32:20;97186.63;;;19.40;35.21
8061;BME280;4073;42.626;25.386;2023-12-20T07:34:45;97186.88;;;19.26;35.68
8061;BME280;4073;42.626;25.386;2023-12-20T07:37:11;97187.81;;;19.30;35.37
8061;BME280;4073;42.626;25.386;2023-12-20T07:39:40;97171.47;;;19.88;34.42
8061;BME280;4073;42.626;25.386;2023-12-20T07:42:06;97181.22;;;19.69;34.21
8061;BME280;4073;42.626;25.386;2023-12-20T07:44:32;97177.06;;;20.12;33.38
8061;BME280;4073;42.626;25.386;2023-12-20T07:46:58;97186.19;;;19.87;33.70
8061;BME280;4073;42.626;25.386;2023-12-20T07:49:23;97176.59;;;19.40;34.69
8061;BME280;4073;42.626;25.386;2023-12-20T07:51:49;97183.16;;;19.39;34.24
8061;BME280;4073;42.626;25.386;2023-12-20T07:54:15;97185.03;;;19.10;34.81
8061;BME280;4073;42.626;25.386;2023-12-20T07:56:41;97174.66;;;19.90;33.85
8061;BME280;4073;42.626;25.386;2023-12-20T07:59:07;97179.59;;;20.50;33.11
8061;BME280;4073;42.626;25.386;2023-12-20T08:01:33;97185.19;;;20.66;32.42
8061;BME280;4073;42.626;25.386;2023-12-20T08:03:58;97182.84;;;21.33;31.79
8061;BME280;4073;42.626;25.386;2023-12-20T08:06:24;97179.63;;;20.62;32.03
8061;BME280;4073;42.626;25.386;2023-12-20T08:08:49;97173.19;;;20.34;32.79
8061;BME280;4073;42.626;25.386;2023-12-20T08:11:16;97173.25;;;20.91;32.19
8061;BME280;4073;42.626;25.386;2023-12-20T08:13:41;97164.19;;;20.87;32.46
8061;BME280;4073;42.626;25.386;2023-12-20T08:16:07;97165.16;;;21.27;31.96
8061;BME280;4073;42.626;25.386;2023-12-20T08:18:32;97167.28;;;22.21;30.93
8061;BME280;4073;42.626;25.386;2023-12-20T08:20:59;97172.16;;;21.64;31.37
8061;BME280;4073;42.626;25.386;2023-12-20T08:23:25;97163.91;;;21.48;31.65
8061;BME280;4073;42.626;25.386;2023-12-20T08:25:51;97158.81;;;22.10;31.27
8061;BME280;4073;42.626;25.386;2023-12-20T08:28:16;97152.63;;;22.25;30.98
8061;BME280;4073;42.626;25.386;2023-12-20T08:30:41;97144.47;;;22.25;30.89
8061;BME280;4073;42.626;25.386;2023-12-20T08:33:07;97140.34;;;22.31;30.80
8061;BME280;4073;42.626;25.386;2023-12-20T08:35:36;97136.66;;;22.83;30.40
8061;BME280;4073;42.626;25.386;2023-12-20T08:38:02;97130.03;;;22.52;30.50
8061;BME280;4073;42.626;25.386;2023-12-20T08:40:29;97121.06;;;21.33;32.21
8061;BME280;4073;42.626;25.386;2023-12-20T08:42:55;97117.13;;;21.19;32.94
8061;BME280;4073;42.626;25.386;2023-12-20T08:45:20;97112.03;;;22.20;31.39
8061;BME280;4073;42.626;25.386;2023-12-20T08:47:46;97105.75;;;22.91;30.51
8061;BME280;4073;42.626;25.386;2023-12-20T08:50:11;97104.41;;;23.16;29.58
8061;BME280;4073;42.626;25.386;2023-12-20T08:52:37;97103.72;;;22.72;30.45
8061;BME280;4073;42.626;25.386;2023-12-20T08:55:03;97105.47;;;22.80;29.79
8061;BME280;4073;42.626;25.386;2023-12-20T08:57:28;97103.06;;;23.41;29.09
8061;BME280;4073;42.626;25.386;2023-12-20T08:59:54;97093.81;;;23.45;28.70
8061;BME280;4073;42.626;25.386;2023-12-20T09:02:19;97082.84;;;23.95;28.11
8061;BME280;4073;42.626;25.386;2023-12-20T09:04:45;97076.63;;;24.17;27.92
8061;BME280;4073;42.626;25.386;2023-12-20T09:07:26;97064.94;;;24.81;27.00
8061;BME280;4073;42.626;25.386;2023-12-20T09:09:52;97070.41;;;25.30;26.39
8061;BME280;4073;42.626;25.386;2023-12-20T09:12:19;97065.69;;;24.17;27.55
8061;BME280;4073;42.626;25.386;2023-12-20T09:14:49;97050.63;;;24.46;27.29
8061;BME280;4073;42.626;25.386;2023-12-20T09:17:16;97031.88;;;25.15;26.01
8061;BME280;4073;42.626;25.386;2023-12-20T09:19:42;97026.56;;;25.52;25.67
8061;BME280;4073;42.626;25.386;2023-12-20T09:22:11;97030.41;;;25.48;25.99
8061;BME280;4073;42.626;25.386;2023-12-20T09:24:37;97031.16;;;24.06;27.74
8061;BME280;4073;42.626;25.386;2023-12-20T09:27:04;97021.31;;;24.43;27.17
8061;BME280;4073;42.626;25.386;2023-12-20T09:29:31;97019.72;;;25.13;26.49
8061;BME280;4073;42.626;25.386;2023-12-20T09:31:56;97017.63;;;25.03;26.53
8061;BME280;4073;42.626;25.386;2023-12-20T09:34:23;96997.47;;;25.70;25.72
8061;BME280;4073;42.626;25.386;2023-12-20T09:36:48;97009.84;;;25.90;25.60
8061;BME280;4073;42.626;25.386;2023-12-20T09:39:14;97006.63;;;26.18;25.16
8061;BME280;4073;42.626;25.386;2023-12-20T09:41:44;97000.56;;;25.69;26.21
8061;BME280;4073;42.626;25.386;2023-12-20T09:44:15;97000.44;;;25.02;26.27
8061;BME280;4073;42.626;25.386;2023-12-20T09:46:45;96994.41;;;24.67;26.64
8061;BME280;4073;42.626;25.386;2023-12-20T09:49:13;96998.91;;;23.73;27.88
8061;BME280;4073;42.626;25.386;2023-12-20T09:51:40;96984.41;;;23.16;28.78
8061;BME280;4073;42.626;25.386;2023-12-20T09:54:06;96974.66;;;23.15;29.19
8061;BME280;4073;42.626;25.386;2023-12-20T09:56:31;96967.50;;;22.91;29.33
8061;BME280;4073;42.626;25.386;2023-12-20T09:58:57;96954.41;;;21.60;30.98
8061;BME280;4073;42.626;25.386;2023-12-20T10:01:26;96961.47;;;20.01;32.79
8061;BME280;4073;42.626;25.386;2023-12-20T10:03:54;96941.56;;;18.50;35.64
8061;BME280;4073;42.626;25.386;2023-12-20T10:06:21;96953.97;;;17.67;37.74
8061;BME280;4073;42.626;25.386;2023-12-20T10:08:47;96947.28;;;16.71;40.47
8061;BME280;4073;42.626;25.386;2023-12-20T10:11:13;96922.53;;;16.22;41.94
8061;BME280;4073;42.626;25.386;2023-12-20T10:13:40;96924.03;;;15.89;43.71
8061;BME280;4073;42.626;25.386;2023-12-20T10:16:06;96933.88;;;15.63;45.37
8061;BME280;4073;42.626;25.386;2023-12-20T10:18:33;96929.22;;;15.46;46.45
8061;BME280;4073;42.626;25.386;2023-12-20T10:20:58;96928.22;;;15.42;46.93
8061;BME280;4073;42.626;25.386;2023-12-20T10:23:24;96925.50;;;15.42;46.57
8061;BME280;4073;42.626;25.386;2023-12-20T10:25:57;96926.00;;;15.44;47.18
8061;BME280;4073;42.626;25.386;2023-12-20T10:28:23;96916.09;;;15.53;47.71
8061;BME280;4073;42.626;25.386;2023-12-20T10:30:53;96909.31;;;15.64;47.74
8061;BME280;4073;42.626;25.386;2023-12-20T10:33:28;96896.75;;;15.90;47.47
8061;BME280;4073;42.626;25.386;2023-12-20T10:35:54;96896.16;;;16.02;46.60
8061;BME280;4073;42.626;25.386;2023-12-20T10:38:21;96887.34;;;16.18;44.60
8061;BME280;4073;42.626;25.386;2023-12-20T10:40:47;96879.88;;;16.15;44.49
8061;BME280;4073;42.626;25.386;2023-12-20T10:43:13;96880.13;;;15.97;44.45
8061;BME280;4073;42.626;25.386;2023-12-20T10:45:39;96876.50;;;15.62;45.88
8061;BME280;4073;42.626;25.386;2023-12-20T10:48:07;96885.28;;;15.23;47.80
8061;BME280;4073;42.626;25.386;2023-12-20T10:50:35;96881.94;;;14.96;49.59
8061;BME280;4073;42.626;25.386;2023-12-20T10:53:02;96876.84;;;14.72;51.52
8061;BME280;4073;42.626;25.386;2023-12-20T10:55:28;96879.97;;;14.66;52.59
8061;BME280;4073;42.626;25.386;2023-12-20T10:58:00;96871.94;;;14.52;53.46
8061;BME280;4073;42.626;25.386;2023-12-20T11:00:29;96874.38;;;14.27;53.81
8061;BME280;4073;42.626;25.386;2023-12-20T11:03:00;96879.97;;;14.30;54.75
8061;BME280;4073;42.626;25.386;2023-12-20T11:05:36;96871.47;;;14.37;54.43
8061;BME280;4073;42.626;25.386;2023-12-20T11:08:11;96857.88;;;14.99;52.71
8061;BME280;4073;42.626;25.386;2023-12-20T11:13:06;96858.19;;;16.97;46.40
8061;BME280;4073;42.626;25.386;2023-12-20T11:15:36;96853.66;;;17.60;43.70
8061;BME280;4073;42.626;25.386;2023-12-20T11:18:03;96847.41;;;18.27;41.79
8061;BME280;4073;42.626;25.386;2023-12-20T11:20:37;96840.94;;;18.69;40.73
8061;BME280;4073;42.626;25.386;2023-12-20T11:23:03;96839.53;;;18.83;39.79
8061;BME280;4073;42.626;25.386;2023-12-20T11:25:29;96824.56;;;18.65;39.10
8061;BME280;4073;42.626;25.386;2023-12-20T11:28:14;96838.53;;;18.88;38.98
8061;BME280;4073;42.626;25.386;2023-12-20T11:31:01;96836.09;;;18.95;38.70
8061;BME280;4073;42.626;25.386;2023-12-20T11:33:31;96832.69;;;18.86;38.41
8061;BME280;4073;42.626;25.386;2023-12-20T11:35:57;96823.84;;;19.30;37.67
8061;BME280;4073;42.626;25.386;2023-12-20T11:38:23;96820.47;;;19.45;37.55
8061;BME280;4073;42.626;25.386;2023-12-20T11:40:49;96803.97;;;19.17;37.65
8061;BME280;4073;42.626;25.386;2023-12-20T11:43:37;96794.34;;;19.28;37.22
8061;BME280;4073;42.626;25.386;2023-12-20T11:46:07;96794.19;;;19.25;36.83
8061;BME280;4073;42.626;25.386;2023-12-20T11:48:35;96789.19;;;19.03;38.21
8061;BME280;4073;42.626;25.386;2023-12-20T11:51:01;96783.63;;;18.99;38.18
8061;BME280;4073;42.626;25.386;2023-12-20T11:53:28;96768.03;;;18.96;38.79
8061;BME280;4073;42.626;25.386;2023-12-20T11:55:54;96773.78;;;19.27;37.74
8061;BME280;4073;42.626;25.386;2023-12-20T11:58:20;96767.50;;;19.03;38.39
8061;BME280;4073;42.626;25.386;2023-12-20T12:00:45;96764.44;;;19.04;38.84
8061;BME280;4073;42.626;25.386;2023-12-20T12:03:14;96752.94;;;18.63;39.46
8061;BME280;4073;42.626;25.386;2023-12-20T12:05:41;96746.84;;;18.25;40.11
8061;BME280;4073;42.626;25.386;2023-12-20T12:08:06;96743.44;;;17.86;41.29
8061;BME280;4073;42.626;25.386;2023-12-20T12:10:33;96733.09;;;17.59;42.51
8061;BME280;4073;42.626;25.386;2023-12-20T12:12:59;96735.47;;;17.32;43.11
8061;BME280;4073;42.626;25.386;2023-12-20T12:15:25;96727.13;;;17.08;44.29
8061;BME280;4073;42.626;25.386;2023-12-20T12:17:54;96730.97;;;16.98;45.07
8061;BME280;4073;42.626;25.386;2023-12-20T12:20:20;96724.03;;;16.80;46.29
8061;BME280;4073;42.626;25.386;2023-12-20T12:22:46;96717.22;;;16.66;46.86
8061;BME280;4073;42.626;25.386;2023-12-20T12:25:16;96700.13;;;16.19;48.12
8061;BME280;4073;42.626;25.386;2023-12-20T12:27:42;96712.81;;;16.10;49.03
8061;BME280;4073;42.626;25.386;2023-12-20T12:30:08;96711.06;;;15.80;50.90
8061;BME280;4073;42.626;25.386;2023-12-20T12:32:35;96710.66;;;15.39;53.44
8061;BME280;4073;42.626;25.386;2023-12-20T12:35:03;96712.81;;;15.28;55.16
8061;BME280;4073;42.626;25.386;2023-12-20T12:37:29;96709.31;;;15.28;56.31
8061;BME280;4073;42.626;25.386;2023-12-20T12:39:54;96702.84;;;14.90;58.54
8061;BME280;4073;42.626;25.386;2023-12-20T12:42:20;96682.41;;;14.58;60.45
8061;BME280;4073;42.626;25.386;2023-12-20T12:44:46;96688.44;;;14.64;60.50
8061;BME280;4073;42.626;25.386;2023-12-20T12:47:12;96688.72;;;14.54;60.45
8061;BME280;4073;42.626;25.386;2023-12-20T12:49:40;96691.34;;;14.45;60.87
8061;BME280;4073;42.626;25.386;2023-12-20T12:52:06;96688.59;;;14.37;62.49
8061;BME280;4073;42.626;25.386;2023-12-20T12:54:31;96687.59;;;14.24;64.56
8061;BME280;4073;42.626;25.386;2023-12-20T12:56:56;96684.44;;;14.09;66.91
8061;BME280;4073;42.626;25.386;2023-12-20T12:59:23;96648.03;;;13.81;67.87
8061;BME280;4073;42.626;25.386;2023-12-20T13:01:48;96684.66;;;13.99;69.20
8061;BME280;4073;42.626;25.386;2023-12-20T13:04:14;96683.47;;;14.05;69.53
8061;BME280;4073;42.626;25.386;2023-12-20T13:06:40;96677.88;;;14.01;69.79